createdAt,value
2022-08-19T00:02:14.140Z,11.20
2022-08-19T00:04:41.314Z,9.15
2022-08-19T00:07:08.543Z,9.63
2022-08-19T00:09:35.799Z,9.75
2022-08-19T00:12:05.119Z,10.30
2022-08-19T00:14:33.215Z,9.50
2022-08-19T00:17:01.043Z,10.23
2022-08-19T00:19:28.274Z,9.00
2022-08-19T00:21:57.362Z,9.88
2022-08-19T00:24:25.007Z,9.35
2022-08-19T00:26:52.820Z,8.93
2022-08-19T00:29:21.912Z,9.82
2022-08-19T00:31:50.689Z,9.35
2022-08-19T00:34:17.858Z,9.35
2022-08-19T00:36:45.674Z,8.75
2022-08-19T00:39:14.029Z,8.65
2022-08-19T00:41:42.448Z,9.23
2022-08-19T00:46:55.472Z,8.77
2022-08-19T00:49:52.389Z,9.90
2022-08-19T00:52:24.820Z,9.13
2022-08-19T00:54:53.968Z,8.60
2022-08-19T00:57:27.813Z,9.43
2022-08-19T01:00:02.569Z,8.88
2022-08-19T01:02:31.805Z,10.57
2022-08-19T01:05:00.333Z,9.10
2022-08-19T01:07:27.728Z,9.65
2022-08-19T01:09:55.058Z,9.70
2022-08-19T01:12:22.722Z,8.88
2022-08-19T01:14:51.196Z,9.23
2022-08-19T01:17:20.167Z,9.27
2022-08-19T01:19:48.072Z,8.98
2022-08-19T01:22:33.634Z,8.85
2022-08-19T01:25:02.406Z,9.48
2022-08-19T01:27:44.052Z,8.50
2022-08-19T01:30:20.578Z,10.50
2022-08-19T01:32:47.572Z,9.10
2022-08-19T01:35:18.023Z,8.98
2022-08-19T01:37:52.991Z,9.45
2022-08-19T01:40:22.585Z,10.77
2022-08-19T01:42:58.502Z,9.27
2022-08-19T01:45:27.891Z,9.60
2022-08-19T01:48:02.011Z,8.80
2022-08-19T01:53:06.227Z,9.15
2022-08-19T01:55:41.075Z,9.10
2022-08-19T01:58:16.099Z,9.85
2022-08-19T02:00:44.409Z,8.85
2022-08-19T02:03:12.543Z,8.95
2022-08-19T02:05:43.009Z,9.10
2022-08-19T02:08:11.646Z,9.30
2022-08-19T02:10:44.517Z,9.65
2022-08-19T02:13:14.582Z,9.13
2022-08-19T02:15:42.707Z,9.63
2022-08-19T02:18:10.057Z,9.48
2022-08-19T02:20:39.643Z,10.10
2022-08-19T02:23:14.006Z,9.20
2022-08-19T02:25:48.953Z,10.38
2022-08-19T02:28:18.735Z,9.57
2022-08-19T02:30:47.725Z,9.88
2022-08-19T02:33:15.013Z,9.88
2022-08-19T02:35:44.143Z,8.95
2022-08-19T02:38:26.795Z,8.35
2022-08-19T02:40:57.510Z,9.55
2022-08-19T02:43:25.654Z,10.95
2022-08-19T02:45:53.079Z,8.85
2022-08-19T02:48:22.049Z,9.35
2022-08-19T02:50:56.379Z,9.65
2022-08-19T02:53:27.867Z,10.13
2022-08-19T02:55:55.810Z,9.50
2022-08-19T02:58:25.195Z,9.18
2022-08-19T03:00:55.297Z,9.23
2022-08-19T03:03:22.886Z,8.77
2022-08-19T03:05:56.962Z,8.85
2022-08-19T03:08:26.216Z,8.80
2022-08-19T03:10:55.011Z,10.63
2022-08-19T03:13:22.556Z,9.38
2022-08-19T03:15:50.204Z,8.70
2022-08-19T03:18:18.330Z,9.38
2022-08-19T03:20:48.247Z,9.10
2022-08-19T03:23:17.422Z,10.68
2022-08-19T03:25:47.099Z,8.18
2022-08-19T03:28:26.042Z,8.88
2022-08-19T03:31:05.319Z,9.23
2022-08-19T03:33:53.084Z,8.77
2022-08-19T03:36:26.330Z,9.00
2022-08-19T03:38:59.700Z,9.18
2022-08-19T03:41:44.670Z,8.18
2022-08-19T03:44:19.650Z,10.23
2022-08-19T03:46:50.247Z,7.90
2022-08-19T03:49:18.775Z,8.55
2022-08-19T03:51:48.905Z,8.75
2022-08-19T03:54:18.565Z,9.45
2022-08-19T03:56:48.175Z,9.60
2022-08-19T03:59:23.346Z,9.85
2022-08-19T04:01:54.941Z,8.45
2022-08-19T04:04:22.684Z,8.55
2022-08-19T04:06:50.317Z,10.13
2022-08-19T04:09:17.688Z,7.85
2022-08-19T04:11:51.079Z,10.15
2022-08-19T04:14:23.328Z,10.23
2022-08-19T04:16:58.171Z,7.15
2022-08-19T04:19:27.021Z,7.22
2022-08-19T04:21:55.379Z,7.47
2022-08-19T04:24:23.821Z,7.85
2022-08-19T04:26:54.225Z,7.13
2022-08-19T04:29:28.778Z,8.52
2022-08-19T04:31:57.811Z,7.75
2022-08-19T04:34:29.398Z,7.43
2022-08-19T04:36:59.696Z,8.18
2022-08-19T04:39:49.649Z,7.63
2022-08-19T04:42:37.241Z,7.88
2022-08-19T04:45:09.443Z,8.25
2022-08-19T04:47:47.891Z,8.77
2022-08-19T04:50:27.931Z,7.50
2022-08-19T04:52:56.783Z,7.13
2022-08-19T04:55:26.760Z,8.05
2022-08-19T04:57:55.690Z,7.47
2022-08-19T05:00:24.643Z,7.78
2022-08-19T05:02:53.750Z,7.35
2022-08-19T05:05:20.929Z,7.88
2022-08-19T05:07:48.365Z,7.38
2022-08-19T05:10:18.055Z,7.05
2022-08-19T05:12:45.138Z,7.10
2022-08-19T05:15:15.680Z,7.75
2022-08-19T05:18:03.751Z,7.25
2022-08-19T05:20:50.102Z,7.40
2022-08-19T05:23:21.880Z,7.03
2022-08-19T05:25:54.526Z,7.47
2022-08-19T05:28:26.016Z,8.05
2022-08-19T05:30:56.595Z,7.38
2022-08-19T05:33:27.687Z,7.75
2022-08-19T05:35:57.104Z,7.43
2022-08-19T05:38:24.188Z,8.05
2022-08-19T05:40:51.187Z,7.18
2022-08-19T05:43:20.754Z,6.85
2022-08-19T05:46:03.319Z,7.55
2022-08-19T05:48:32.784Z,7.95
2022-08-19T05:51:09.441Z,8.65
2022-08-19T05:53:36.759Z,6.85
2022-08-19T05:56:10.504Z,7.63
2022-08-19T05:58:42.015Z,7.65
2022-08-19T06:01:19.368Z,6.30
2022-08-19T06:03:50.062Z,7.35
2022-08-19T06:06:18.373Z,6.53
2022-08-19T06:08:53.173Z,9.30
2022-08-19T06:11:59.336Z,6.07
2022-08-19T06:14:31.697Z,7.55
2022-08-19T06:17:07.029Z,8.65
2022-08-19T06:19:34.832Z,7.10
2022-08-19T06:22:16.475Z,6.80
2022-08-19T06:24:48.711Z,8.38
2022-08-19T06:27:17.952Z,7.00
2022-08-19T06:29:46.055Z,7.10
2022-08-19T06:32:17.494Z,6.85
2022-08-19T06:34:48.658Z,7.05
2022-08-19T06:37:16.134Z,8.25
2022-08-19T06:39:45.116Z,9.32
2022-08-19T06:42:14.434Z,7.25
2022-08-19T06:44:43.799Z,7.25
2022-08-19T06:47:23.487Z,7.38
2022-08-19T06:50:05.818Z,7.45
2022-08-19T06:52:47.860Z,7.18
2022-08-19T06:55:16.868Z,6.80
2022-08-19T06:57:49.354Z,7.47
2022-08-19T07:00:17.095Z,7.18
2022-08-19T07:02:50.601Z,6.72
2022-08-19T07:05:28.138Z,6.47
2022-08-19T07:07:57.592Z,7.60
2022-08-19T07:10:27.421Z,6.95
2022-08-19T07:12:55.921Z,8.32
2022-08-19T07:15:24.899Z,6.75
2022-08-19T07:17:53.266Z,6.20
2022-08-19T07:20:22.174Z,6.82
2022-08-19T07:22:59.602Z,7.05
2022-08-19T07:25:32.505Z,6.15
2022-08-19T07:28:01.481Z,6.60
2022-08-19T07:30:28.999Z,6.68
2022-08-19T07:32:58.628Z,7.03
2022-08-19T07:35:26.030Z,5.68
2022-08-19T07:37:54.365Z,6.60
2022-08-19T07:40:29.155Z,6.32
2022-08-19T07:42:56.823Z,5.22
2022-08-19T07:45:24.675Z,3.92
2022-08-19T07:47:52.170Z,4.20
2022-08-19T07:50:24.404Z,4.55
2022-08-19T07:52:55.769Z,5.03
2022-08-19T07:55:41.390Z,3.88
2022-08-19T07:58:17.582Z,5.75
2022-08-19T08:00:48.531Z,4.22
2022-08-19T08:03:20.393Z,4.72
2022-08-19T08:06:06.690Z,3.85
2022-08-19T08:08:52.864Z,4.40
2022-08-19T08:11:24.008Z,3.58
2022-08-19T08:14:00.313Z,4.57
2022-08-19T08:19:40.821Z,4.72
2022-08-19T08:22:33.257Z,3.60
2022-08-19T08:25:11.323Z,5.07
2022-08-19T08:27:43.401Z,5.22
2022-08-19T08:33:19.255Z,6.45
2022-08-19T08:36:09.250Z,5.38
2022-08-19T08:38:41.255Z,4.20
2022-08-19T08:41:48.714Z,3.83
2022-08-19T08:44:22.029Z,4.43
2022-08-19T08:47:01.877Z,3.63
2022-08-19T08:49:43.626Z,4.88
2022-08-19T08:52:24.886Z,4.35
2022-08-19T08:55:10.114Z,5.22
2022-08-19T08:58:06.725Z,4.18
2022-08-19T09:00:43.804Z,4.78
2022-08-19T09:03:20.348Z,3.72
2022-08-19T09:06:21.143Z,5.35
2022-08-19T09:09:11.854Z,3.90
2022-08-19T09:11:46.614Z,4.20
2022-08-19T09:14:49.846Z,4.18
2022-08-19T09:17:19.004Z,4.63
2022-08-19T09:20:09.919Z,4.68
2022-08-19T09:22:45.083Z,4.30
2022-08-19T09:25:16.720Z,5.80
2022-08-19T09:27:44.369Z,4.55
2022-08-19T09:33:05.913Z,4.10
2022-08-19T09:35:33.505Z,3.97
2022-08-19T09:38:17.653Z,4.18
2022-08-19T09:40:45.926Z,4.40
2022-08-19T09:43:15.020Z,4.55
2022-08-19T09:46:04.019Z,3.20
2022-08-19T09:48:34.388Z,4.75
2022-08-19T09:51:17.707Z,4.82
2022-08-19T09:53:46.269Z,4.60
2022-08-19T09:56:14.636Z,5.55
2022-08-19T09:58:41.759Z,4.93
2022-08-19T10:01:12.324Z,5.55
2022-08-19T10:04:00.092Z,5.15
2022-08-19T10:06:38.221Z,5.00
2022-08-19T10:09:16.301Z,4.70
2022-08-19T10:11:55.356Z,5.10
2022-08-19T10:14:24.717Z,5.15
2022-08-19T10:16:53.118Z,7.10
2022-08-19T10:19:25.891Z,5.22
2022-08-19T10:22:00.197Z,5.50
2022-08-19T10:24:29.165Z,5.55
2022-08-19T10:26:59.771Z,3.70
2022-08-19T10:29:33.546Z,5.10
2022-08-19T10:32:03.551Z,6.13
2022-08-19T10:34:31.796Z,5.32
2022-08-19T10:37:03.048Z,5.53
2022-08-19T10:39:43.536Z,5.05
2022-08-19T10:42:26.159Z,5.18
2022-08-19T10:44:53.843Z,4.88
2022-08-19T10:47:26.049Z,3.90
2022-08-19T10:52:49.560Z,3.95
2022-08-19T10:55:40.338Z,4.07
2022-08-19T10:58:16.000Z,5.72
2022-08-19T11:00:47.128Z,4.32
2022-08-19T11:03:14.557Z,4.57
2022-08-19T11:05:42.408Z,5.43
2022-08-19T11:08:23.402Z,3.78
2022-08-19T11:11:00.331Z,4.30
2022-08-19T11:13:30.025Z,4.00
2022-08-19T11:16:07.410Z,4.13
2022-08-19T11:18:44.617Z,3.90
2022-08-19T11:21:20.415Z,4.25
2022-08-19T11:23:50.293Z,4.43
2022-08-19T11:26:18.609Z,3.90
2022-08-19T11:28:46.022Z,3.63
2022-08-19T11:31:19.669Z,3.72
2022-08-19T11:33:47.996Z,3.92
2022-08-19T11:36:16.369Z,2.55
2022-08-19T11:38:45.183Z,3.75
2022-08-19T11:41:12.454Z,3.08
2022-08-19T11:43:41.029Z,3.28
2022-08-19T11:46:10.976Z,4.65
2022-08-19T11:48:39.131Z,3.75
2022-08-19T11:51:09.803Z,3.92
2022-08-19T11:53:37.829Z,3.97
2022-08-19T11:58:33.490Z,3.85
2022-08-19T12:01:00.752Z,3.10
2022-08-19T12:03:29.073Z,3.50
2022-08-19T12:05:56.525Z,4.18
2022-08-19T12:08:23.773Z,4.47
2022-08-19T12:10:50.889Z,4.35
2022-08-19T12:13:19.940Z,3.55
2022-08-19T12:15:48.941Z,4.40
2022-08-19T12:18:16.218Z,4.03
2022-08-19T12:20:44.245Z,3.58
2022-08-19T12:23:11.910Z,4.72
2022-08-19T12:25:51.013Z,3.20
2022-08-19T12:28:21.312Z,5.28
2022-08-19T12:30:52.124Z,3.78
2022-08-19T12:33:25.131Z,5.05
2022-08-19T12:35:53.106Z,4.78
2022-08-19T12:38:20.762Z,3.90
2022-08-19T12:40:48.360Z,4.55
2022-08-19T12:43:16.998Z,5.03
2022-08-19T12:45:44.798Z,3.30
2022-08-19T12:48:33.325Z,5.13
2022-08-19T12:51:11.177Z,3.80
2022-08-19T12:53:39.039Z,4.45
2022-08-19T12:56:23.368Z,4.50
2022-08-19T12:58:53.078Z,3.25
2022-08-19T13:01:24.216Z,4.22
2022-08-19T13:03:54.918Z,4.30
2022-08-19T13:06:23.965Z,3.80
2022-08-19T13:11:36.361Z,4.57
2022-08-19T13:16:32.532Z,4.45
2022-08-19T13:21:31.916Z,4.10
2022-08-19T13:24:05.122Z,4.35
2022-08-19T13:26:35.220Z,2.10
2022-08-19T13:29:20.795Z,5.60
2022-08-19T13:32:17.666Z,4.35
2022-08-19T13:34:48.426Z,4.40
2022-08-19T13:37:15.827Z,4.18
2022-08-19T13:39:42.910Z,4.07
2022-08-19T13:42:11.578Z,4.45
2022-08-19T13:44:38.909Z,4.28
2022-08-19T13:47:07.904Z,4.88
2022-08-19T13:49:37.349Z,3.92
2022-08-19T13:52:06.567Z,3.30
2022-08-19T13:57:16.637Z,4.32
2022-08-19T13:59:43.665Z,4.00
2022-08-19T14:02:11.814Z,4.22
2022-08-19T14:04:39.137Z,3.50
2022-08-19T14:07:06.164Z,2.72
2022-08-19T14:09:33.182Z,3.50
2022-08-19T14:12:00.548Z,5.10
2022-08-19T14:14:27.605Z,3.50
2022-08-19T14:16:54.601Z,3.60
2022-08-19T14:19:22.436Z,4.50
2022-08-19T14:21:51.452Z,3.10
2022-08-19T14:24:18.443Z,3.25
2022-08-19T14:26:45.808Z,3.85
2022-08-19T14:29:14.002Z,3.45
2022-08-19T14:31:43.687Z,3.10
2022-08-19T14:34:11.561Z,4.75
2022-08-19T14:36:40.295Z,3.10
2022-08-19T14:39:34.269Z,3.92
2022-08-19T14:42:11.411Z,5.10
2022-08-19T14:44:39.074Z,3.20
2022-08-19T14:47:08.775Z,3.20
2022-08-19T14:49:42.342Z,5.68
2022-08-19T14:52:13.501Z,3.15
2022-08-19T14:54:46.368Z,2.65
2022-08-19T14:57:17.902Z,4.10
2022-08-19T14:59:45.167Z,2.72
2022-08-19T15:02:34.297Z,4.60
2022-08-19T15:05:02.681Z,3.33
2022-08-19T15:07:33.285Z,4.03
2022-08-19T15:10:07.872Z,2.90
2022-08-19T15:12:40.512Z,2.63
2022-08-19T15:15:14.299Z,3.83
2022-08-19T15:17:46.561Z,4.50
2022-08-19T15:20:19.552Z,3.05
2022-08-19T15:22:49.262Z,3.47
2022-08-19T15:25:19.742Z,3.83
2022-08-19T15:27:47.432Z,3.45
2022-08-19T15:32:53.606Z,3.97
2022-08-19T15:35:23.460Z,4.40
2022-08-19T15:37:52.376Z,5.88
2022-08-19T15:40:21.125Z,4.30
2022-08-19T15:42:50.067Z,3.53
2022-08-19T15:45:23.601Z,4.05
2022-08-19T15:48:08.195Z,4.13
2022-08-19T15:50:36.000Z,4.07
2022-08-19T15:53:09.480Z,4.60
2022-08-19T15:55:42.726Z,3.53
2022-08-19T15:58:33.679Z,4.72
2022-08-19T16:01:26.907Z,3.47
2022-08-19T16:04:15.924Z,3.65
2022-08-19T16:06:52.902Z,4.20
2022-08-19T16:09:27.631Z,4.55
2022-08-19T16:12:06.031Z,4.28
2022-08-19T16:14:35.596Z,3.97
2022-08-19T16:17:15.471Z,4.60
2022-08-19T16:19:52.603Z,4.47
2022-08-19T16:22:19.877Z,3.83
2022-08-19T16:24:47.460Z,3.80
2022-08-19T16:27:16.195Z,4.80
2022-08-19T16:29:43.270Z,3.83
2022-08-19T16:32:12.155Z,5.72
2022-08-19T16:34:43.837Z,6.80
2022-08-19T16:37:10.905Z,6.03
2022-08-19T16:39:43.666Z,8.10
2022-08-19T16:42:12.175Z,6.88
2022-08-19T16:47:18.088Z,7.25
2022-08-19T16:49:54.540Z,6.63
2022-08-19T16:52:27.109Z,9.52
2022-08-19T16:54:55.718Z,7.85
2022-08-19T16:57:27.054Z,7.50
2022-08-19T16:59:55.200Z,8.00
2022-08-19T17:02:30.465Z,7.35
2022-08-19T17:05:01.199Z,8.07
2022-08-19T17:07:33.572Z,8.45
2022-08-19T17:10:02.610Z,9.07
2022-08-19T17:12:31.958Z,9.75
2022-08-19T17:15:04.093Z,9.38
2022-08-19T17:17:33.532Z,8.93
2022-08-19T17:20:02.880Z,12.32
2022-08-19T17:22:36.881Z,9.20
2022-08-19T17:25:07.721Z,8.60
2022-08-19T17:27:34.832Z,7.75
2022-08-19T17:30:06.877Z,7.68
2022-08-19T17:32:37.226Z,8.30
2022-08-19T17:35:07.359Z,6.80
2022-08-19T17:37:38.733Z,6.88
2022-08-19T17:40:09.217Z,7.40
2022-08-19T17:42:37.223Z,7.40
2022-08-19T17:45:05.589Z,8.35
2022-08-19T17:47:36.135Z,9.98
2022-08-19T17:50:13.246Z,9.10
2022-08-19T17:52:52.497Z,8.73
2022-08-19T17:55:20.983Z,7.75
2022-08-19T17:57:52.971Z,8.73
2022-08-19T18:00:22.000Z,7.78
2022-08-19T18:02:54.262Z,7.68
2022-08-19T18:05:29.653Z,7.90
2022-08-19T18:07:58.583Z,8.02
2022-08-19T18:10:31.447Z,8.05
2022-08-19T18:13:02.442Z,8.05
2022-08-19T18:15:45.541Z,8.02
2022-08-19T18:18:14.914Z,7.00
2022-08-19T18:20:44.292Z,7.60
2022-08-19T18:23:43.780Z,8.00
2022-08-19T18:25:58.779Z,7.70
2022-08-19T18:28:27.051Z,6.43
2022-08-19T18:30:54.107Z,6.93
2022-08-19T18:33:47.030Z,6.95
2022-08-19T18:36:14.272Z,6.93
2022-08-19T18:39:02.868Z,7.88
2022-08-19T18:41:54.480Z,10.27
2022-08-19T18:44:41.377Z,8.38
2022-08-19T18:47:36.122Z,9.35
2022-08-19T18:50:11.793Z,9.32
2022-08-19T18:52:40.107Z,8.00
2022-08-19T18:55:09.149Z,9.38
2022-08-19T18:57:36.525Z,7.50
2022-08-19T19:00:05.586Z,7.78
2022-08-19T19:02:39.107Z,7.93
2022-08-19T19:05:10.424Z,7.70
2022-08-19T19:07:42.914Z,7.45
2022-08-19T19:10:11.348Z,7.70
2022-08-19T19:12:43.621Z,7.63
2022-08-19T19:15:12.070Z,8.40
2022-08-19T19:17:42.840Z,7.85
2022-08-19T19:20:10.084Z,8.27
2022-08-19T19:22:40.218Z,7.65
2022-08-19T19:25:15.260Z,7.00
2022-08-19T19:27:46.124Z,6.72
2022-08-19T19:30:16.064Z,6.65
2022-08-19T19:32:43.117Z,6.75
2022-08-19T19:37:57.315Z,5.97
2022-08-19T19:40:24.479Z,6.82
2022-08-19T19:42:52.120Z,6.68
2022-08-19T19:45:25.178Z,6.32
2022-08-19T19:47:57.688Z,5.95
2022-08-19T19:50:31.709Z,6.82
2022-08-19T19:53:21.064Z,6.72
2022-08-19T19:55:50.986Z,7.07
2022-08-19T19:58:21.251Z,6.30
2022-08-19T20:01:01.576Z,5.85
2022-08-19T20:03:36.426Z,7.72
2022-08-19T20:06:03.674Z,5.47
2022-08-19T20:08:55.349Z,7.30
2022-08-19T20:11:41.467Z,6.75
2022-08-19T20:14:16.332Z,6.03
2022-08-19T20:16:48.191Z,5.53
2022-08-19T20:19:21.257Z,5.63
2022-08-19T20:22:14.062Z,6.43
2022-08-19T20:24:45.390Z,5.55
2022-08-19T20:27:12.951Z,5.90
2022-08-19T20:29:44.428Z,7.10
2022-08-19T20:32:15.764Z,5.30
2022-08-19T20:34:44.799Z,5.32
2022-08-19T20:37:14.993Z,5.03
2022-08-19T20:39:42.557Z,4.78
2022-08-19T20:42:13.408Z,4.35
2022-08-19T20:44:44.740Z,4.97
2022-08-19T20:47:12.460Z,4.95
2022-08-19T20:49:42.712Z,5.97
2022-08-19T20:52:10.637Z,4.80
2022-08-19T20:54:41.775Z,5.40
2022-08-19T20:57:08.881Z,5.03
2022-08-19T20:59:40.785Z,5.72
2022-08-19T21:02:14.860Z,5.40
2022-08-19T21:04:46.285Z,4.13
2022-08-19T21:07:17.757Z,4.72
2022-08-19T21:09:44.827Z,4.70
2022-08-19T21:12:13.112Z,5.45
2022-08-19T21:14:47.228Z,4.75
2022-08-19T21:17:17.306Z,4.57
2022-08-19T21:19:44.733Z,5.97
2022-08-19T21:22:11.772Z,5.78
2022-08-19T21:24:43.233Z,6.22
2022-08-19T21:27:12.603Z,6.43
2022-08-19T21:29:43.335Z,6.43
2022-08-19T21:32:14.067Z,6.50
2022-08-19T21:34:46.666Z,5.93
2022-08-19T21:37:25.397Z,6.13
2022-08-19T21:39:54.877Z,6.38
2022-08-19T21:42:25.749Z,6.30
2022-08-19T21:44:53.406Z,6.55
2022-08-19T21:47:23.191Z,6.22
2022-08-19T21:49:50.964Z,7.20
2022-08-19T21:52:35.009Z,6.68
2022-08-19T21:55:07.811Z,6.40
2022-08-19T21:57:41.320Z,6.80
2022-08-19T22:00:25.543Z,6.50
2022-08-19T22:02:53.129Z,6.53
2022-08-19T22:05:23.299Z,6.63
2022-08-19T22:07:51.791Z,6.00
2022-08-19T22:10:32.857Z,6.22
2022-08-19T22:12:59.970Z,5.05
2022-08-19T22:15:32.166Z,6.28
2022-08-19T22:18:03.586Z,5.60
2022-08-19T22:20:32.808Z,7.05
2022-08-19T22:23:06.683Z,6.47
2022-08-19T22:25:45.606Z,8.48
2022-08-19T22:28:14.605Z,6.15
2022-08-19T22:30:51.209Z,6.57
2022-08-19T22:33:22.456Z,7.32
2022-08-19T22:35:54.503Z,6.68
2022-08-19T22:38:23.022Z,6.50
2022-08-19T22:40:54.055Z,6.20
2022-08-19T22:43:26.910Z,6.60
2022-08-19T22:45:58.745Z,6.32
2022-08-19T22:48:28.374Z,5.97
2022-08-19T22:51:19.448Z,6.38
2022-08-19T22:53:47.791Z,7.32
2022-08-19T22:56:19.666Z,6.65
2022-08-19T22:58:54.423Z,5.60
2022-08-19T23:01:30.368Z,6.13
2022-08-19T23:04:03.854Z,7.40
2022-08-19T23:06:38.145Z,7.95
2022-08-19T23:09:11.230Z,6.65
2022-08-19T23:11:46.510Z,6.32
2022-08-19T23:14:17.111Z,6.15
2022-08-19T23:16:50.436Z,6.65
2022-08-19T23:19:19.388Z,5.75
2022-08-19T23:21:49.616Z,6.35
2022-08-19T23:24:17.060Z,7.07
2022-08-19T23:27:04.545Z,6.50
2022-08-19T23:29:54.426Z,6.75
2022-08-19T23:32:23.651Z,6.00
2022-08-19T23:34:55.399Z,5.43
2022-08-19T23:37:22.618Z,6.10
2022-08-19T23:42:18.496Z,6.50
2022-08-19T23:44:52.312Z,6.28
2022-08-19T23:47:22.200Z,6.72
2022-08-19T23:49:49.834Z,7.25
2022-08-19T23:52:16.811Z,7.07
2022-08-19T23:54:44.126Z,7.30
2022-08-19T23:57:13.697Z,6.10
2022-08-19T23:59:45.674Z,8.18
